Time;durP1;ratioP1;P1;durP2;ratioP2;P2;SDS_P1;SDS_P2;PMS_P1;PMS_P2;Temp;Humidity;BMP_temperature;BMP_pressure;BME280_temperature;BME280_humidity;BME280_pressure;Samples;Min_cycle;Max_cycle;Signal;HPM_P1;HPM_P2
2023/05/29 00:00:35;;;;;;;16.55;4.40;;;9.40;99.90;;;;;;5020455;28;20449;-86
2023/05/29 00:03:01;;;;;;;18.48;3.20;;;9.60;99.90;;;;;;5018506;28;21206;-85
2023/05/29 00:05:27;;;;;;;17.85;4.38;;;9.40;99.90;;;;;;5019150;28;20797;-74
2023/05/29 00:07:52;;;;;;;16.80;3.67;;;9.30;99.90;;;;;;5019642;28;20495;-83
2023/05/29 00:10:18;;;;;;;14.85;3.13;;;9.30;99.90;;;;;;5022242;28;20435;-85
2023/05/29 00:12:44;;;;;;;19.70;3.75;;;9.30;99.90;;;;;;5020548;28;20492;-78
2023/05/29 00:15:13;;;;;;;14.95;4.53;;;9.40;99.90;;;;;;5022110;28;20996;-83
2023/05/29 00:17:40;;;;;;;16.30;3.53;;;9.30;99.90;;;;;;5039405;28;20457;-86
2023/05/29 00:20:09;;;;;;;13.68;3.80;;;9.20;99.90;;;;;;5027022;28;20449;-83
2023/05/29 00:22:37;;;;;;;14.32;3.78;;;9.20;99.90;;;;;;5022730;28;20431;-78
2023/05/29 00:25:05;;;;;;;14.63;3.22;;;9.30;99.90;;;;;;5029198;28;20462;-77
2023/05/29 00:27:32;;;;;;;19.02;3.83;;;9.10;99.90;;;;;;5029165;28;21323;-80
2023/05/29 00:29:58;;;;;;;14.23;3.83;;;9.10;99.90;;;;;;5019421;28;20431;-74
2023/05/29 00:32:24;;;;;;;19.07;3.50;;;9.10;99.90;;;;;;5017427;28;20486;-81
2023/05/29 00:34:50;;;;;;;18.40;3.93;;;9.00;99.90;;;;;;5020043;28;20469;-84
2023/05/29 00:37:15;;;;;;;14.38;3.13;;;9.00;99.90;;;;;;5021249;28;20485;-84
2023/05/29 00:39:41;;;;;;;16.90;3.63;;;9.10;99.90;;;;;;5019115;28;20462;-80
2023/05/29 00:42:07;;;;;;;19.33;4.90;;;9.10;99.90;;;;;;5019011;28;21325;-85
2023/05/29 00:44:33;;;;;;;21.45;4.45;;;9.00;99.90;;;;;;5019564;28;20464;-76
2023/05/29 00:46:59;;;;;;;15.83;3.73;;;9.10;99.90;;;;;;5020138;28;20434;-85
2023/05/29 00:49:26;;;;;;;11.20;2.92;;;8.90;99.90;;;;;;5021498;28;20462;-86
2023/05/29 00:51:54;;;;;;;14.05;3.25;;;9.00;99.90;;;;;;5017457;28;20462;-77
2023/05/29 00:54:26;;;;;;;18.55;4.15;;;9.00;99.90;;;;;;5019191;28;20446;-86
2023/05/29 00:56:52;;;;;;;14.60;3.72;;;9.10;99.90;;;;;;5021040;28;20435;-83
2023/05/29 00:59:21;;;;;;;14.63;2.83;;;9.10;99.90;;;;;;5023373;28;20411;-82
2023/05/29 01:01:50;;;;;;;17.88;3.10;;;9.00;99.90;;;;;;5026072;28;20449;-81
2023/05/29 01:04:16;;;;;;;24.60;4.33;;;9.00;99.90;;;;;;5026512;28;20403;-82
2023/05/29 01:06:42;;;;;;;13.43;2.72;;;9.00;99.90;;;;;;5032798;28;20438;-81
2023/05/29 01:09:08;;;;;;;15.88;4.47;;;9.10;99.90;;;;;;5025174;28;20431;-84
2023/05/29 01:12:00;;;;;;;19.00;4.00;;;8.90;99.90;;;;;;5030695;28;20519;-74
2023/05/29 01:15:05;;;;;;;16.02;3.63;;;8.90;99.90;;;;;;5041238;28;20427;-83
2023/05/29 01:17:47;;;;;;;14.35;3.97;;;8.90;99.90;;;;;;5014826;28;20425;-84
2023/05/29 01:20:19;;;;;;;16.25;3.60;;;8.90;99.90;;;;;;5047590;28;20432;-82
2023/05/29 01:23:09;;;;;;;18.33;4.22;;;9.00;99.90;;;;;;5030466;28;20494;-85
2023/05/29 01:26:00;;;;;;;17.58;3.30;;;9.00;99.90;;;;;;5037660;28;20425;-77
2023/05/29 01:28:33;;;;;;;14.75;3.38;;;9.00;99.90;;;;;;5024005;28;20886;-83
2023/05/29 01:31:00;;;;;;;12.85;3.70;;;9.10;99.90;;;;;;5006443;28;20441;-84
2023/05/29 01:33:27;;;;;;;17.75;3.58;;;9.00;99.90;;;;;;5020413;28;20822;-80
2023/05/29 01:35:53;;;;;;;20.42;3.58;;;9.00;99.90;;;;;;5022621;28;20454;-84
2023/05/29 01:38:18;;;;;;;16.77;3.13;;;9.00;99.90;;;;;;5021962;28;20431;-84
2023/05/29 01:40:45;;;;;;;20.92;3.45;;;9.00;99.90;;;;;;5024108;28;20431;-80
2023/05/29 01:43:12;;;;;;;15.37;3.30;;;9.00;99.90;;;;;;5023397;28;20418;-82
2023/05/29 01:45:38;;;;;;;16.95;4.03;;;9.00;99.90;;;;;;5022716;28;20469;-85
2023/05/29 01:48:04;;;;;;;15.32;3.53;;;9.20;99.90;;;;;;5025102;28;20944;-77
2023/05/29 01:50:31;;;;;;;18.92;4.20;;;9.10;99.90;;;;;;5022385;28;20833;-85
2023/05/29 01:52:56;;;;;;;18.58;4.13;;;9.10;99.90;;;;;;5023800;28;20429;-79
2023/05/29 01:55:22;;;;;;;17.77;3.97;;;9.00;99.90;;;;;;5023715;28;20419;-76
2023/05/29 01:57:50;;;;;;;13.67;3.93;;;9.10;99.90;;;;;;5023491;28;20797;-81
2023/05/29 02:00:18;;;;;;;22.88;4.65;;;9.10;99.90;;;;;;5024268;28;20426;-85
2023/05/29 02:02:44;;;;;;;17.17;3.38;;;9.00;99.90;;;;;;5025065;28;20785;-81
2023/05/29 02:05:10;;;;;;;16.13;3.30;;;9.20;99.90;;;;;;5027873;28;20514;-85
2023/05/29 02:07:36;;;;;;;20.35;3.80;;;9.00;99.90;;;;;;5023237;28;20439;-83
2023/05/29 02:10:04;;;;;;;17.67;2.90;;;9.00;99.90;;;;;;5023149;28;20529;-82
2023/05/29 02:12:29;;;;;;;14.90;3.78;;;9.00;99.90;;;;;;5020805;28;20419;-84
2023/05/29 02:14:55;;;;;;;15.87;4.60;;;8.90;99.90;;;;;;5022210;28;20445;-74
2023/05/29 02:17:21;;;;;;;18.23;3.77;;;8.90;99.90;;;;;;5020386;28;20418;-76
2023/05/29 02:19:47;;;;;;;16.20;4.87;;;9.00;99.90;;;;;;5022840;28;20789;-86
2023/05/29 02:22:12;;;;;;;15.20;3.80;;;8.90;99.90;;;;;;5022030;28;20843;-76
2023/05/29 02:24:38;;;;;;;17.00;3.47;;;8.90;99.90;;;;;;5021715;28;20418;-81
2023/05/29 02:27:04;;;;;;;13.87;3.23;;;8.90;99.90;;;;;;5023184;28;20417;-79
2023/05/29 02:29:30;;;;;;;16.20;5.40;;;8.90;99.90;;;;;;5021179;28;20524;-85
2023/05/29 02:31:55;;;;;;;16.23;4.50;;;8.90;99.90;;;;;;5023699;28;20509;-82
2023/05/29 02:34:22;;;;;;;18.10;3.40;;;8.90;99.90;;;;;;5023505;28;20597;-85
2023/05/29 02:36:49;;;;;;;19.52;3.45;;;8.90;99.90;;;;;;5022481;28;20445;-83
2023/05/29 02:39:14;;;;;;;17.42;4.25;;;8.80;99.90;;;;;;5029817;28;20425;-85
2023/05/29 02:41:40;;;;;;;14.85;3.63;;;8.80;99.90;;;;;;5030841;28;21218;-81
2023/05/29 02:44:05;;;;;;;18.00;3.50;;;8.80;99.90;;;;;;5025265;28;20419;-81
2023/05/29 02:46:31;;;;;;;20.45;3.92;;;8.80;99.90;;;;;;5036804;28;20423;-77
2023/05/29 02:48:57;;;;;;;19.10;3.53;;;8.80;99.90;;;;;;4999551;28;20434;-83
2023/05/29 02:51:22;;;;;;;19.03;4.60;;;8.80;99.90;;;;;;5035651;28;20423;-83
2023/05/29 02:53:48;;;;;;;20.80;4.60;;;8.80;99.90;;;;;;5023352;28;20415;-83
2023/05/29 02:56:15;;;;;;;22.27;4.65;;;8.90;99.90;;;;;;5026175;28;20545;-81
2023/05/29 02:58:41;;;;;;;20.02;4.68;;;9.00;99.90;;;;;;5025804;28;20418;-84
2023/05/29 03:01:07;;;;;;;20.60;5.10;;;8.90;99.90;;;;;;5038114;28;20465;-78
2023/05/29 03:03:33;;;;;;;16.48;3.53;;;9.00;99.90;;;;;;5025792;28;20454;-85
2023/05/29 03:06:00;;;;;;;19.05;5.00;;;9.10;99.90;;;;;;5028132;28;20439;-85
2023/05/29 03:08:27;;;;;;;14.10;3.03;;;9.10;99.90;;;;;;5028024;28;20415;-85
2023/05/29 03:10:54;;;;;;;19.85;4.47;;;9.10;99.90;;;;;;5035972;28;20433;-82
2023/05/29 03:13:20;;;;;;;21.23;4.20;;;9.20;99.90;;;;;;5030612;28;20415;-85
2023/05/29 03:15:45;;;;;;;15.83;3.57;;;9.30;99.90;;;;;;5029010;28;20920;-81
2023/05/29 03:18:11;;;;;;;16.37;3.30;;;9.40;99.90;;;;;;5051690;28;20406;-82
2023/05/29 03:20:37;;;;;;;15.82;3.65;;;9.40;99.90;;;;;;5041454;28;20461;-76
2023/05/29 03:23:03;;;;;;;16.38;3.45;;;9.30;99.90;;;;;;5042969;28;20488;-85
2023/05/29 03:25:29;;;;;;;21.02;4.45;;;9.60;99.90;;;;;;5047093;28;20510;-82
2023/05/29 03:27:55;;;;;;;19.33;4.00;;;9.50;99.90;;;;;;5035934;28;20504;-85
2023/05/29 03:30:21;;;;;;;21.03;5.10;;;9.60;99.90;;;;;;5034078;28;20439;-82
2023/05/29 03:32:46;;;;;;;15.67;4.00;;;9.60;99.90;;;;;;5023089;28;21024;-85
2023/05/29 03:35:12;;;;;;;16.40;3.70;;;9.70;99.90;;;;;;5030960;28;20920;-79
2023/05/29 03:37:38;;;;;;;12.30;3.70;;;9.70;99.90;;;;;;5026402;28;20457;-84
2023/05/29 03:40:04;;;;;;;17.65;4.15;;;9.80;99.90;;;;;;5026581;28;20419;-84
2023/05/29 03:42:31;;;;;;;15.30;4.03;;;9.90;99.90;;;;;;5024549;28;20487;-85
2023/05/29 03:44:57;;;;;;;17.63;4.07;;;9.80;99.90;;;;;;5030895;28;20425;-85
2023/05/29 03:47:22;;;;;;;19.13;4.72;;;9.90;99.90;;;;;;5025733;28;20419;-84
2023/05/29 03:49:48;;;;;;;21.58;5.07;;;9.70;99.90;;;;;;5033205;28;20477;-83
2023/05/29 03:52:14;;;;;;;24.17;4.93;;;9.90;99.90;;;;;;5035796;28;20430;-84
2023/05/29 03:54:39;;;;;;;21.17;4.40;;;9.80;99.90;;;;;;5019892;28;20417;-84
2023/05/29 03:57:06;;;;;;;18.33;4.33;;;9.90;99.90;;;;;;5027508;28;20434;-82
2023/05/29 03:59:32;;;;;;;20.20;3.95;;;9.90;99.90;;;;;;5025715;28;20443;-84
2023/05/29 04:01:58;;;;;;;16.53;4.17;;;9.90;99.90;;;;;;5039121;28;20498;-80
2023/05/29 04:04:23;;;;;;;15.20;3.20;;;9.80;99.90;;;;;;5026600;28;21193;-84
2023/05/29 04:06:49;;;;;;;13.50;3.73;;;9.90;99.90;;;;;;5036146;28;20434;-78
2023/05/29 04:09:15;;;;;;;20.40;4.40;;;9.80;99.90;;;;;;5033052;28;20490;-79
2023/05/29 04:11:41;;;;;;;13.57;4.10;;;9.90;99.90;;;;;;5039110;28;20430;-74
2023/05/29 04:14:07;;;;;;;15.43;4.00;;;9.90;99.90;;;;;;5021217;28;20476;-83
2023/05/29 04:16:33;;;;;;;12.85;3.30;;;9.90;99.90;;;;;;5019202;28;20901;-81
2023/05/29 04:18:59;;;;;;;17.23;4.18;;;9.90;99.90;;;;;;5017927;28;20462;-87
2023/05/29 04:21:24;;;;;;;16.73;4.05;;;10.00;99.90;;;;;;5018528;28;20494;-83
2023/05/29 04:23:50;;;;;;;19.65;3.70;;;10.00;99.90;;;;;;5020239;28;20470;-81
2023/05/29 04:26:16;;;;;;;12.23;3.15;;;10.10;99.90;;;;;;5021125;28;20525;-85
2023/05/29 04:28:43;;;;;;;15.13;3.28;;;10.10;99.90;;;;;;5019232;28;20424;-84
2023/05/29 04:31:14;;;;;;;15.23;3.10;;;10.20;99.90;;;;;;5017322;28;20432;-80
2023/05/29 04:33:40;;;;;;;17.10;3.45;;;10.20;99.90;;;;;;5017160;28;20419;-77
2023/05/29 04:36:08;;;;;;;16.27;4.03;;;10.20;99.90;;;;;;5018858;28;20449;-75
2023/05/29 04:38:34;;;;;;;14.00;3.80;;;10.20;99.90;;;;;;5018557;28;20766;-78
2023/05/29 04:40:59;;;;;;;18.10;5.38;;;10.20;99.90;;;;;;5020676;28;20425;-74
2023/05/29 04:43:28;;;;;;;15.20;3.30;;;10.30;99.90;;;;;;5018830;28;20430;-85
2023/05/29 04:45:53;;;;;;;18.83;3.65;;;10.30;99.90;;;;;;5019680;28;20431;-86
2023/05/29 04:48:19;;;;;;;19.10;4.10;;;10.40;99.90;;;;;;5021324;28;20443;-74
2023/05/29 04:50:45;;;;;;;13.87;3.10;;;10.30;99.90;;;;;;5024457;28;20805;-86
2023/05/29 04:53:11;;;;;;;14.73;4.07;;;10.30;99.90;;;;;;5026920;28;21256;-82
2023/05/29 04:55:37;;;;;;;12.30;3.73;;;10.40;99.90;;;;;;5023170;28;20445;-82
2023/05/29 04:58:02;;;;;;;10.90;3.40;;;10.40;99.90;;;;;;5024228;28;20468;-84
2023/05/29 05:00:28;;;;;;;15.00;3.97;;;10.60;99.90;;;;;;5037650;28;20437;-86
2023/05/29 05:02:54;;;;;;;17.83;3.97;;;10.50;99.90;;;;;;5028444;28;20417;-85
2023/05/29 05:05:20;;;;;;;15.10;3.57;;;10.50;99.90;;;;;;5036037;28;20466;-83
2023/05/29 05:07:45;;;;;;;14.27;3.45;;;10.70;99.90;;;;;;5030492;28;20531;-85
2023/05/29 05:10:11;;;;;;;13.50;3.50;;;10.70;99.90;;;;;;5037740;28;20865;-83
2023/05/29 05:12:37;;;;;;;14.87;3.50;;;10.70;99.90;;;;;;5035674;28;21693;-85
2023/05/29 05:15:04;;;;;;;17.23;4.33;;;10.70;99.90;;;;;;5030238;28;20429;-82
2023/05/29 05:17:30;;;;;;;15.23;4.40;;;10.70;99.90;;;;;;5029478;28;20442;-81
2023/05/29 05:19:55;;;;;;;13.17;3.63;;;10.60;99.90;;;;;;5042737;28;21010;-83
2023/05/29 05:22:21;;;;;;;14.40;2.97;;;10.80;99.90;;;;;;5046561;28;20419;-85
2023/05/29 05:24:47;;;;;;;18.80;4.53;;;10.90;99.90;;;;;;5012261;28;20517;-81
2023/05/29 05:27:13;;;;;;;12.23;2.97;;;11.00;99.90;;;;;;5042713;28;20973;-86
2023/05/29 05:29:39;;;;;;;14.73;3.88;;;11.20;99.90;;;;;;5038198;28;20422;-76
2023/05/29 05:32:05;;;;;;;13.18;4.00;;;11.20;99.90;;;;;;5023651;28;20518;-86
2023/05/29 05:34:31;;;;;;;16.73;3.85;;;11.10;99.90;;;;;;5023655;28;20466;-80
2023/05/29 05:36:57;;;;;;;14.73;3.63;;;11.10;99.90;;;;;;5023525;28;20458;-78
2023/05/29 05:39:22;;;;;;;13.63;3.80;;;11.00;99.90;;;;;;5023220;28;20430;-76
2023/05/29 05:41:48;;;;;;;13.50;3.00;;;11.10;99.90;;;;;;5021724;28;20518;-80
2023/05/29 05:44:13;;;;;;;16.65;3.60;;;11.10;99.90;;;;;;5024079;28;20488;-81
2023/05/29 05:46:39;;;;;;;15.48;3.63;;;11.00;99.90;;;;;;5024038;28;20801;-88
2023/05/29 05:49:05;;;;;;;17.77;4.13;;;11.10;99.90;;;;;;5023928;28;20467;-85
2023/05/29 05:51:30;;;;;;;13.30;3.10;;;11.20;99.90;;;;;;5022748;28;20435;-82
2023/05/29 05:53:56;;;;;;;15.97;3.37;;;11.00;99.90;;;;;;5030394;28;20461;-73
2023/05/29 05:56:22;;;;;;;16.10;2.93;;;11.20;99.90;;;;;;5027502;28;20427;-75
2023/05/29 05:58:49;;;;;;;14.70;4.75;;;11.10;99.90;;;;;;5023822;28;20765;-75
2023/05/29 06:01:15;;;;;;;15.18;3.58;;;11.10;99.90;;;;;;5028998;28;20423;-82
2023/05/29 06:03:41;;;;;;;18.08;3.70;;;11.10;99.90;;;;;;5028139;28;20423;-76
2023/05/29 06:06:08;;;;;;;16.60;3.60;;;11.00;99.90;;;;;;5035961;28;20426;-83
2023/05/29 06:08:34;;;;;;;17.52;5.03;;;11.00;99.90;;;;;;5028086;28;20509;-83
2023/05/29 06:11:00;;;;;;;16.55;3.35;;;11.00;99.90;;;;;;5029232;28;20530;-85
2023/05/29 06:13:26;;;;;;;16.13;4.70;;;11.10;99.90;;;;;;5033748;28;20435;-76
2023/05/29 06:15:53;;;;;;;16.27;4.18;;;11.20;99.90;;;;;;5029897;28;20430;-78
2023/05/29 06:18:19;;;;;;;17.00;3.88;;;11.30;99.90;;;;;;5030019;28;20517;-82
2023/05/29 06:20:45;;;;;;;12.47;3.13;;;11.30;99.90;;;;;;5027361;28;20509;-88
2023/05/29 06:23:11;;;;;;;17.45;3.10;;;11.30;99.90;;;;;;5022642;28;20449;-79
2023/05/29 06:25:36;;;;;;;17.00;4.43;;;11.50;99.90;;;;;;5023604;28;20438;-86
2023/05/29 06:28:05;;;;;;;15.57;3.65;;;11.40;99.90;;;;;;5027362;28;20419;-86
2023/05/29 06:30:31;;;;;;;20.67;4.50;;;11.60;99.90;;;;;;5023599;28;20442;-84
2023/05/29 06:32:57;;;;;;;19.42;4.78;;;11.70;99.90;;;;;;5021450;28;20427;-81
2023/05/29 06:35:22;;;;;;;17.17;4.55;;;11.70;99.90;;;;;;5022652;28;20513;-81
2023/05/29 06:37:48;;;;;;;12.52;3.55;;;11.70;99.90;;;;;;5022961;28;20453;-79
2023/05/29 06:40:15;;;;;;;15.90;4.43;;;11.80;99.90;;;;;;5024589;28;20492;-87
2023/05/29 06:42:44;;;;;;;17.00;3.85;;;11.80;99.90;;;;;;5023998;28;20042;-74
2023/05/29 06:45:11;;;;;;;17.98;5.07;;;11.50;99.90;;;;;;5023667;28;20052;-73
2023/05/29 06:47:37;;;;;;;20.75;3.97;;;11.60;99.90;;;;;;5026176;28;20071;-87
2023/05/29 06:50:02;;;;;;;16.33;4.30;;;11.60;99.90;;;;;;5021994;28;20081;-78
2023/05/29 06:52:28;;;;;;;21.00;4.03;;;11.70;99.90;;;;;;5023180;28;20494;-85
2023/05/29 06:54:54;;;;;;;14.07;3.15;;;11.90;99.90;;;;;;5019294;28;20038;-86
2023/05/29 06:57:19;;;;;;;20.70;3.80;;;11.80;99.90;;;;;;5029218;28;20095;-86
2023/05/29 06:59:45;;;;;;;28.17;5.43;;;11.90;99.90;;;;;;5031390;28;20038;-81
2023/05/29 07:02:11;;;;;;;19.55;4.53;;;12.00;99.90;;;;;;5029208;28;20656;-75
2023/05/29 07:04:37;;;;;;;17.23;3.90;;;12.00;99.90;;;;;;5039226;28;20179;-84
2023/05/29 07:07:02;;;;;;;13.13;3.30;;;11.60;99.90;;;;;;5036438;28;20132;-86
2023/05/29 07:09:28;;;;;;;14.68;4.20;;;11.70;99.90;;;;;;5047375;28;20140;-84
2023/05/29 07:11:54;;;;;;;19.95;3.88;;;11.60;99.90;;;;;;5028854;28;20037;-79
2023/05/29 07:14:19;;;;;;;15.38;3.78;;;11.90;99.90;;;;;;5040480;28;20049;-87
2023/05/29 07:16:45;;;;;;;19.80;5.13;;;12.20;99.90;;;;;;5024701;28;20423;-85
2023/05/29 07:19:13;;;;;;;19.60;5.50;;;12.90;99.90;;;;;;5005050;28;20427;-79
2023/05/29 07:21:39;;;;;;;19.17;4.93;;;13.10;99.90;;;;;;5021375;28;20435;-83
2023/05/29 07:24:05;;;;;;;18.90;4.03;;;12.70;99.90;;;;;;5023823;28;20521;-76
2023/05/29 07:26:31;;;;;;;21.58;4.65;;;12.70;99.90;;;;;;5027703;28;20913;-90
2023/05/29 07:28:57;;;;;;;23.00;5.05;;;12.30;99.90;;;;;;5026337;28;20430;-83
2023/05/29 07:31:23;;;;;;;28.10;5.43;;;12.70;99.90;;;;;;5025725;28;20512;-85
2023/05/29 07:33:49;;;;;;;16.27;4.25;;;12.60;99.90;;;;;;5021890;28;20426;-78
2023/05/29 07:36:18;;;;;;;19.77;4.70;;;12.70;99.90;;;;;;5024459;28;20432;-84
2023/05/29 07:38:44;;;;;;;18.35;4.60;;;12.60;99.90;;;;;;5026395;28;20427;-75
2023/05/29 07:41:10;;;;;;;16.27;4.30;;;12.90;99.90;;;;;;5035929;28;20490;-80
2023/05/29 07:43:36;;;;;;;17.63;3.90;;;12.50;99.90;;;;;;5042633;28;20470;-85
2023/05/29 07:46:01;;;;;;;19.53;4.50;;;12.40;99.90;;;;;;5048873;28;20425;-82
2023/05/29 07:48:27;;;;;;;19.25;4.55;;;12.70;99.90;;;;;;5027422;28;20438;-84
2023/05/29 07:50:53;;;;;;;23.45;5.57;;;12.80;99.90;;;;;;5033477;28;20431;-83
2023/05/29 07:53:18;;;;;;;17.58;4.57;;;12.60;99.90;;;;;;5032005;28;21089;-83
2023/05/29 07:55:44;;;;;;;19.10;4.90;;;12.80;99.90;;;;;;5030830;28;20907;-78
2023/05/29 07:58:11;;;;;;;15.23;4.10;;;13.10;99.90;;;;;;5025988;28;20427;-85
2023/05/29 08:00:38;;;;;;;17.60;5.30;;;13.10;99.90;;;;;;5037560;28;20421;-79
2023/05/29 08:03:04;;;;;;;18.23;5.45;;;12.90;99.90;;;;;;5027203;28;20449;-80
2023/05/29 08:05:31;;;;;;;18.30;4.13;;;13.40;99.90;;;;;;5030268;28;20432;-82
2023/05/29 08:07:58;;;;;;;20.23;4.80;;;13.40;99.90;;;;;;5027780;28;20510;-80
2023/05/29 08:10:24;;;;;;;21.20;4.40;;;13.50;99.90;;;;;;5027370;28;20439;-80
2023/05/29 08:12:51;;;;;;;17.23;5.28;;;13.60;99.90;;;;;;5027688;28;20419;-82
2023/05/29 08:15:18;;;;;;;19.40;4.50;;;13.20;99.90;;;;;;5041888;28;20773;-80
2023/05/29 08:17:44;;;;;;;19.57;4.90;;;13.30;99.90;;;;;;5026469;28;20532;-79
2023/05/29 08:20:10;;;;;;;18.70;4.70;;;13.30;99.90;;;;;;5025600;28;20442;-80
2023/05/29 08:22:36;;;;;;;18.23;4.45;;;13.40;99.90;;;;;;5025105;28;20770;-77
2023/05/29 08:25:01;;;;;;;22.42;5.40;;;13.30;99.90;;;;;;5032569;28;20431;-80
2023/05/29 08:27:27;;;;;;;20.40;4.95;;;13.30;99.90;;;;;;5030298;28;20477;-82
2023/05/29 08:29:54;;;;;;;17.67;4.90;;;13.00;99.90;;;;;;5027091;28;20500;-83
2023/05/29 08:32:21;;;;;;;15.40;4.65;;;13.30;99.90;;;;;;5021812;28;20422;-83
2023/05/29 08:34:46;;;;;;;20.75;4.40;;;13.40;99.90;;;;;;5035375;28;20428;-82
2023/05/29 08:37:12;;;;;;;17.80;4.40;;;13.60;99.90;;;;;;5041133;28;20431;-84
2023/05/29 08:39:39;;;;;;;19.30;4.35;;;13.50;99.90;;;;;;5013330;28;20441;-82
2023/05/29 08:42:09;;;;;;;18.15;4.88;;;13.30;99.90;;;;;;5027167;28;20500;-76
2023/05/29 08:44:39;;;;;;;17.80;4.57;;;13.50;99.90;;;;;;5030605;28;20419;-83
2023/05/29 08:47:10;;;;;;;16.80;4.40;;;13.20;99.90;;;;;;5028828;28;20913;-83
2023/05/29 08:49:42;;;;;;;20.10;4.90;;;13.10;99.90;;;;;;5010699;28;20552;-80
2023/05/29 08:52:18;;;;;;;19.98;5.00;;;13.10;99.90;;;;;;5029479;28;20443;-80
2023/05/29 08:54:44;;;;;;;18.67;4.15;;;13.20;99.90;;;;;;5031946;28;20459;-77
2023/05/29 08:57:13;;;;;;;17.08;4.15;;;13.50;99.90;;;;;;5031217;28;20960;-78
2023/05/29 08:59:44;;;;;;;17.60;4.10;;;13.40;99.90;;;;;;5028910;28;20466;-80
2023/05/29 09:02:14;;;;;;;17.63;4.05;;;13.50;99.90;;;;;;5031119;28;20427;-79
2023/05/29 09:04:49;;;;;;;18.42;4.57;;;13.30;99.90;;;;;;5033984;28;20485;-74
2023/05/29 09:07:18;;;;;;;16.92;5.65;;;13.00;99.90;;;;;;5026001;28;20901;-89
2023/05/29 09:09:44;;;;;;;20.77;4.28;;;13.00;99.90;;;;;;5034299;28;20461;-82
2023/05/29 09:12:10;;;;;;;26.00;5.25;;;13.00;99.90;;;;;;5032332;28;20407;-87
2023/05/29 09:14:38;;;;;;;17.27;4.00;;;13.20;99.90;;;;;;5030471;28;20957;-85
2023/05/29 09:17:06;;;;;;;16.57;3.73;;;13.20;99.90;;;;;;5033051;28;20503;-89
2023/05/29 09:19:32;;;;;;;19.73;5.22;;;13.00;99.90;;;;;;5031813;28;20963;-87
2023/05/29 09:22:05;;;;;;;18.92;4.50;;;13.00;99.90;;;;;;5030435;28;20792;-88
2023/05/29 09:24:36;;;;;;;17.75;4.30;;;13.10;99.90;;;;;;5014780;28;20415;-83
2023/05/29 09:27:04;;;;;;;18.25;4.95;;;13.30;99.90;;;;;;5035723;28;20426;-85
2023/05/29 09:29:42;;;;;;;16.60;4.80;;;13.10;99.90;;;;;;5034531;28;20427;-85
2023/05/29 09:32:13;;;;;;;23.67;5.35;;;13.20;99.90;;;;;;5036475;28;20442;-74
2023/05/29 09:34:39;;;;;;;22.02;4.90;;;13.30;99.90;;;;;;5036125;28;20399;-79
2023/05/29 09:37:11;;;;;;;17.13;3.77;;;13.50;99.90;;;;;;5037685;28;20422;-86
2023/05/29 09:39:49;;;;;;;16.85;4.28;;;13.30;99.90;;;;;;5029188;28;20445;-87
2023/05/29 09:42:16;;;;;;;21.75;5.78;;;13.30;99.90;;;;;;5031269;28;20411;-87
2023/05/29 09:44:43;;;;;;;20.65;4.82;;;13.70;99.90;;;;;;5028803;28;20406;-85
2023/05/29 09:47:10;;;;;;;15.60;3.85;;;13.70;99.90;;;;;;5030459;28;20566;-76
2023/05/29 09:49:41;;;;;;;15.52;4.07;;;13.60;99.90;;;;;;5030151;28;20906;-88
2023/05/29 09:52:08;;;;;;;17.27;4.20;;;13.50;99.90;;;;;;5030038;28;20399;-86
2023/05/29 09:54:36;;;;;;;16.47;4.57;;;13.40;99.90;;;;;;5029063;28;20556;-88
2023/05/29 09:57:04;;;;;;;12.30;3.58;;;13.80;99.90;;;;;;5029632;28;20456;-90
2023/05/29 09:59:31;;;;;;;20.08;5.55;;;13.70;99.90;;;;;;5027562;28;20956;-88
2023/05/29 10:02:04;;;;;;;18.02;4.97;;;13.80;99.90;;;;;;5029493;28;20418;-89
2023/05/29 10:04:32;;;;;;;16.80;4.25;;;13.80;99.90;;;;;;5029571;28;20996;-90
2023/05/29 10:07:12;;;;;;;16.75;4.30;;;13.80;99.90;;;;;;5027424;28;20481;-86
2023/05/29 10:09:43;;;;;;;17.77;4.38;;;14.10;99.90;;;;;;5024987;28;20846;-85
2023/05/29 10:12:11;;;;;;;19.15;4.03;;;14.20;99.90;;;;;;5028370;28;20435;-86
2023/05/29 10:14:38;;;;;;;19.60;4.60;;;14.00;99.90;;;;;;5041303;28;21267;-74
2023/05/29 10:17:08;;;;;;;20.48;4.03;;;14.00;99.90;;;;;;5024227;28;20481;-87
2023/05/29 10:19:36;;;;;;;19.63;4.53;;;14.00;99.90;;;;;;5030546;28;20415;-77
2023/05/29 10:22:04;;;;;;;18.77;5.38;;;14.00;99.90;;;;;;5028722;28;20446;-87
2023/05/29 10:24:32;;;;;;;20.60;4.88;;;14.10;99.90;;;;;;5029422;28;20414;-86
2023/05/29 10:26:58;;;;;;;16.40;4.15;;;14.40;99.90;;;;;;5030021;28;20940;-86
2023/05/29 10:29:53;;;;;;;15.13;4.28;;;13.90;99.90;;;;;;5029391;28;20470;-85
2023/05/29 10:32:42;;;;;;;18.67;5.85;;;13.80;99.90;;;;;;5026381;28;20427;-82
2023/05/29 10:35:20;;;;;;;17.95;3.92;;;14.10;99.90;;;;;;5028986;28;20414;-85
2023/05/29 10:37:54;;;;;;;17.13;4.40;;;14.50;99.90;;;;;;5028336;28;20419;-87
2023/05/29 10:40:25;;;;;;;14.25;4.40;;;14.10;99.90;;;;;;5034424;28;20775;-75
2023/05/29 10:42:58;;;;;;;17.65;5.00;;;14.10;99.90;;;;;;5044083;28;20845;-83
2023/05/29 10:45:32;;;;;;;13.27;4.55;;;14.00;99.90;;;;;;5027924;28;20435;-86
2023/05/29 10:48:07;;;;;;;16.90;3.73;;;14.10;99.90;;;;;;5026849;28;20442;-77
2023/05/29 10:50:46;;;;;;;15.97;4.17;;;14.50;99.90;;;;;;5026212;28;20945;-86
2023/05/29 10:53:18;;;;;;;13.13;4.00;;;14.20;99.90;;;;;;5027478;28;20446;-87
2023/05/29 10:55:45;;;;;;;15.82;4.82;;;14.30;99.90;;;;;;5028268;28;20510;-88
2023/05/29 10:58:14;;;;;;;13.80;3.80;;;14.30;99.90;;;;;;5028543;28;20427;-84
2023/05/29 11:00:41;;;;;;;19.70;4.53;;;14.40;99.90;;;;;;5024863;28;20411;-82
2023/05/29 11:03:08;;;;;;;19.97;4.27;;;14.30;99.90;;;;;;5025603;28;20431;-87
2023/05/29 11:05:34;;;;;;;13.95;4.43;;;14.40;99.90;;;;;;5027655;28;20925;-81
2023/05/29 11:08:03;;;;;;;19.98;4.43;;;14.50;99.90;;;;;;5027349;28;20453;-86
2023/05/29 11:10:47;;;;;;;14.93;4.65;;;14.10;99.90;;;;;;5026608;28;20837;-82
2023/05/29 11:13:36;;;;;;;14.85;3.72;;;14.30;99.90;;;;;;5026753;28;20506;-83
2023/05/29 11:16:39;;;;;;;20.00;3.60;;;14.60;99.90;;;;;;5026466;28;20427;-84
2023/05/29 11:19:10;;;;;;;14.45;3.80;;;14.60;99.90;;;;;;5034719;28;20430;-84
2023/05/29 11:22:05;;;;;;;13.48;4.05;;;14.40;99.90;;;;;;5027044;28;20503;-85
2023/05/29 11:24:33;;;;;;;14.13;3.80;;;15.00;99.90;;;;;;5019078;28;21973;-81
2023/05/29 11:27:04;;;;;;;16.73;3.70;;;14.80;99.90;;;;;;5026526;28;20427;-81
2023/05/29 11:29:30;;;;;;;15.90;4.05;;;14.90;99.90;;;;;;5028496;28;20528;-82
2023/05/29 11:32:02;;;;;;;16.40;3.97;;;14.80;99.90;;;;;;5043755;28;20820;-81
2023/05/29 11:34:29;;;;;;;14.10;3.65;;;15.00;99.90;;;;;;5025361;28;20422;-81
2023/05/29 11:36:57;;;;;;;17.67;4.03;;;15.00;99.90;;;;;;5030997;28;20425;-78
2023/05/29 11:39:22;;;;;;;13.98;3.70;;;14.80;99.90;;;;;;5025498;28;20426;-80
2023/05/29 11:41:52;;;;;;;15.70;3.97;;;14.60;99.90;;;;;;5027059;28;20418;-82
2023/05/29 11:44:18;;;;;;;20.80;5.05;;;14.80;99.90;;;;;;5023288;28;20418;-83
2023/05/29 11:46:44;;;;;;;13.70;4.20;;;15.00;99.90;;;;;;5027010;28;20422;-83
2023/05/29 11:49:10;;;;;;;15.93;4.27;;;15.30;99.90;;;;;;5027261;28;20415;-80
2023/05/29 11:51:36;;;;;;;16.23;4.00;;;15.40;99.90;;;;;;5028910;28;20943;-81
2023/05/29 11:54:02;;;;;;;13.37;4.27;;;15.20;99.90;;;;;;5026083;28;20415;-82
2023/05/29 11:56:29;;;;;;;14.77;4.87;;;15.20;99.90;;;;;;5026742;28;20443;-82
2023/05/29 11:58:57;;;;;;;16.50;4.60;;;15.30;99.90;;;;;;5030436;28;20418;-85
2023/05/29 12:01:24;;;;;;;12.57;3.58;;;15.60;99.90;;;;;;5027624;28;20525;-82
2023/05/29 12:03:50;;;;;;;13.05;3.63;;;15.40;99.90;;;;;;5028471;28;20802;-83
2023/05/29 12:06:16;;;;;;;16.27;4.95;;;15.30;99.90;;;;;;5024846;28;20507;-83
2023/05/29 12:08:42;;;;;;;14.48;3.67;;;15.50;99.90;;;;;;5026999;28;20443;-82
2023/05/29 12:11:08;;;;;;;14.32;3.83;;;15.60;99.90;;;;;;5026110;28;20465;-81
2023/05/29 12:13:34;;;;;;;12.10;4.43;;;15.20;99.90;;;;;;5026154;28;20418;-84
2023/05/29 12:16:03;;;;;;;14.30;3.93;;;15.20;99.90;;;;;;5034780;28;20431;-83
2023/05/29 12:18:29;;;;;;;13.82;3.50;;;15.40;99.90;;;;;;5046480;28;20790;-81
2023/05/29 12:21:03;;;;;;;16.45;4.22;;;15.30;99.90;;;;;;5034495;28;20434;-84
2023/05/29 12:23:30;;;;;;;19.15;4.35;;;15.00;99.90;;;;;;5026567;28;20449;-82
2023/05/29 12:25:57;;;;;;;18.40;4.87;;;15.50;99.90;;;;;;5008310;28;20591;-82
2023/05/29 12:28:23;;;;;;;11.00;3.25;;;15.40;99.90;;;;;;5026188;28;20411;-83
2023/05/29 12:30:49;;;;;;;13.88;4.50;;;15.10;99.90;;;;;;5024265;28;20432;-84
2023/05/29 12:33:28;;;;;;;14.13;4.00;;;15.50;99.90;;;;;;5026836;28;20822;-81
2023/05/29 12:35:55;;;;;;;11.65;3.55;;;15.30;99.90;;;;;;5029919;28;20423;-81
2023/05/29 12:38:22;;;;;;;15.88;3.78;;;15.00;99.90;;;;;;5026154;28;20399;-82
2023/05/29 12:40:49;;;;;;;18.95;4.45;;;15.20;99.90;;;;;;5024995;28;20430;-81
2023/05/29 12:43:16;;;;;;;18.27;4.67;;;15.40;99.90;;;;;;5026645;28;20469;-83